createdAt,value
2019-05-09T00:01:05.145Z,948
2019-05-09T00:04:11.274Z,948
2019-05-09T00:07:19.522Z,947.9
2019-05-09T00:10:45.179Z,947.9
2019-05-09T00:13:53.281Z,947.8
2019-05-09T00:16:59.827Z,947.9
2019-05-09T00:20:08.654Z,947.8
2019-05-09T00:23:14.829Z,947.9
2019-05-09T00:26:23.319Z,947.9
2019-05-09T00:29:29.809Z,947.9
2019-05-09T00:32:38.567Z,947.9
2019-05-09T00:35:45.524Z,947.9
2019-05-09T00:38:54.204Z,947.9
2019-05-09T00:42:00.405Z,947.8
2019-05-09T00:45:08.814Z,947.9
2019-05-09T00:48:15.311Z,947.9
2019-05-09T00:51:23.864Z,947.8
2019-05-09T00:54:30.097Z,947.8
2019-05-09T00:57:38.366Z,947.7
2019-05-09T01:00:45.278Z,947.7
2019-05-09T01:03:54.061Z,947.7
2019-05-09T01:07:00.233Z,947.7
2019-05-09T01:10:08.896Z,947.7
2019-05-09T01:13:15.466Z,947.6
2019-05-09T01:16:23.807Z,947.7
2019-05-09T01:19:30.354Z,947.6
2019-05-09T01:22:38.848Z,947.6
2019-05-09T01:25:45.036Z,947.6
2019-05-09T01:28:53.470Z,947.5
2019-05-09T01:31:59.931Z,947.6
2019-05-09T01:35:08.546Z,947.5
2019-05-09T01:38:15.531Z,947.5
2019-05-09T01:41:34.658Z,947.6
2019-05-09T01:44:40.875Z,947.5
2019-05-09T01:47:49.597Z,947.5
2019-05-09T01:50:58.114Z,947.5
2019-05-09T01:54:05.069Z,947.5
2019-05-09T01:57:13.218Z,947.5
2019-05-09T02:00:19.946Z,947.5
2019-05-09T02:03:28.296Z,947.5
2019-05-09T02:06:34.565Z,947.5
2019-05-09T02:09:44.164Z,947.5
2019-05-09T02:12:50.316Z,947.5
2019-05-09T02:15:58.716Z,947.6
2019-05-09T02:19:05.983Z,947.5
2019-05-09T02:22:14.298Z,947.5
2019-05-09T02:25:20.422Z,947.5
2019-05-09T02:28:29.287Z,947.5
2019-05-09T02:31:36.682Z,947.5
2019-05-09T02:34:45.512Z,947.5
2019-05-09T02:37:51.795Z,947.5
2019-05-09T02:41:00.811Z,947.5
2019-05-09T02:44:10.376Z,947.5
2019-05-09T02:47:19.122Z,947.5
2019-05-09T02:50:28.209Z,947.5
2019-05-09T02:53:40.621Z,947.6
2019-05-09T02:56:50.297Z,947.5
2019-05-09T02:59:59.759Z,947.5
2019-05-09T03:03:09.712Z,947.5
2019-05-09T03:06:19.135Z,947.5
2019-05-09T03:09:28.271Z,947.4
2019-05-09T03:12:40.591Z,947.5
2019-05-09T03:15:50.034Z,947.4
2019-05-09T03:18:59.523Z,947.4
2019-05-09T03:22:09.353Z,947.4
2019-05-09T03:25:18.810Z,947.4
2019-05-09T03:28:28.074Z,947.4
2019-05-09T03:31:34.531Z,947.4
2019-05-09T03:34:44.997Z,947.4
2019-05-09T03:37:53.316Z,947.4
2019-05-09T03:41:01.508Z,947.4
2019-05-09T03:44:08.505Z,947.3
2019-05-09T03:47:14.765Z,947.4
2019-05-09T03:50:22.922Z,947.4
2019-05-09T03:53:29.144Z,947.4
2019-05-09T03:56:37.376Z,947.4
2019-05-09T03:59:43.696Z,947.4
2019-05-09T04:02:49.989Z,947.3
2019-05-09T04:06:03.798Z,947.4
2019-05-09T04:09:12.699Z,947.3
2019-05-09T04:12:19.446Z,947.3
2019-05-09T04:15:27.409Z,947.3
2019-05-09T04:18:33.821Z,947.2
2019-05-09T04:21:44.383Z,947.2
2019-05-09T04:24:52.802Z,947.2
2019-05-09T04:27:59.581Z,947.2
2019-05-09T04:31:07.949Z,947.1
2019-05-09T04:34:14.169Z,1245.8
2019-05-09T04:37:22.505Z,1245.8
2019-05-09T04:40:44.666Z,1245.8
2019-05-09T04:43:54.474Z,1245.8
2019-05-09T04:47:04.938Z,1245.8
2019-05-09T04:50:25.011Z,1245.8
2019-05-09T04:53:33.455Z,1245.8
2019-05-09T04:56:43.689Z,1245.8
2019-05-09T04:59:52.429Z,1245.8
2019-05-09T05:02:59.085Z,1245.8
2019-05-09T05:06:08.857Z,1245.8
2019-05-09T05:09:15.047Z,1245.8
2019-05-09T05:12:28.408Z,1245.8
2019-05-09T05:15:34.543Z,1245.8
2019-05-09T05:18:42.838Z,1245.8
2019-05-09T05:21:49.209Z,1245.8
2019-05-09T05:25:00.537Z,1245.8
2019-05-09T05:28:09.160Z,1245.8
2019-05-09T05:31:17.807Z,1245.8
2019-05-09T05:34:24.106Z,1245.8
2019-05-09T05:37:32.464Z,1245.8
2019-05-09T05:40:50.009Z,1245.8
2019-05-09T05:43:58.512Z,1245.8
2019-05-09T05:47:04.651Z,1245.8
2019-05-09T05:50:13.192Z,1245.8
2019-05-09T05:53:22.012Z,1245.8
2019-05-09T05:56:29.166Z,1245.8
2019-05-09T05:59:41.690Z,1245.8
2019-05-09T06:02:49.179Z,1245.8
2019-05-09T06:05:55.340Z,1245.8
2019-05-09T06:09:03.900Z,1245.8
2019-05-09T06:12:12.583Z,1245.8
2019-05-09T06:15:19.498Z,1245.8
2019-05-09T06:18:28.136Z,1245.8
2019-05-09T06:21:34.270Z,1245.8
2019-05-09T06:24:42.436Z,1245.8
2019-05-09T06:27:52.342Z,1245.8
2019-05-09T06:30:59.708Z,1245.8
2019-05-09T06:34:08.023Z,1245.8
2019-05-09T06:37:14.472Z,1245.8
2019-05-09T06:40:23.476Z,1245.8
2019-05-09T06:43:30.308Z,1245.8
2019-05-09T06:46:39.176Z,1245.8
2019-05-09T06:49:45.317Z,1245.8
2019-05-09T06:52:57.835Z,1245.8
2019-05-09T06:56:04.115Z,1245.8
2019-05-09T06:59:12.347Z,1245.8
2019-05-09T07:02:18.866Z,1245.8
2019-05-09T07:05:25.059Z,1245.8
2019-05-09T07:08:33.531Z,1245.8
2019-05-09T07:11:39.751Z,1245.8
2019-05-09T07:14:48.362Z,1245.8
2019-05-09T07:17:57.293Z,1245.8
2019-05-09T07:21:03.633Z,1245.8
2019-05-09T07:24:12.543Z,1245.8
2019-05-09T07:27:19.134Z,1245.8
2019-05-09T07:30:25.326Z,1245.8
2019-05-09T07:33:34.547Z,1245.8
2019-05-09T07:36:44.110Z,1245.8
2019-05-09T07:39:52.718Z,1245.8
2019-05-09T07:42:59.769Z,1245.8
2019-05-09T07:46:08.372Z,1245.8
2019-05-09T07:49:14.884Z,1245.8
2019-05-09T07:52:23.246Z,1245.8
2019-05-09T07:55:29.428Z,1245.8
2019-05-09T07:58:38.218Z,1245.8
2019-05-09T08:01:49.332Z,1245.8
2019-05-09T08:04:58.460Z,1245.8
2019-05-09T08:08:04.826Z,1245.8
2019-05-09T08:11:13.601Z,1245.8
2019-05-09T08:14:22.425Z,1245.8
2019-05-09T08:17:29.946Z,1245.8
2019-05-09T08:20:41.722Z,1245.8
2019-05-09T08:23:49.833Z,1245.8
2019-05-09T08:26:58.505Z,1245.8
2019-05-09T08:30:04.717Z,1245.8
2019-05-09T08:33:13.326Z,1245.8
2019-05-09T08:36:21.458Z,1245.8
2019-05-09T08:39:28.975Z,1245.8
2019-05-09T08:42:37.123Z,1245.8
2019-05-09T08:45:44.057Z,1245.8
2019-05-09T08:48:52.753Z,1245.8
2019-05-09T08:52:19.665Z,1245.8
2019-05-09T08:55:28.495Z,1245.8
2019-05-09T08:58:34.846Z,1245.8
2019-05-09T09:02:21.724Z,1245.8
2019-05-09T09:05:30.160Z,1245.8
2019-05-09T09:08:39.081Z,1245.8
2019-05-09T09:11:48.367Z,1245.8
2019-05-09T09:14:54.557Z,1245.8
2019-05-09T09:18:03.210Z,1245.8
2019-05-09T09:21:09.730Z,1245.8
2019-05-09T09:24:18.180Z,1245.8
2019-05-09T09:27:24.319Z,1245.8
2019-05-09T09:30:33.113Z,1245.8
2019-05-09T09:33:39.364Z,1245.8
2019-05-09T09:36:47.820Z,1245.8
2019-05-09T09:39:59.379Z,1245.8
2019-05-09T09:43:08.581Z,1245.8
2019-05-09T09:46:18.708Z,1245.8
2019-05-09T09:49:24.883Z,1245.8
2019-05-09T09:52:38.209Z,1245.8
2019-05-09T09:55:48.937Z,1245.8
2019-05-09T09:58:55.098Z,1245.8
2019-05-09T10:02:03.393Z,1245.8
2019-05-09T10:05:14.542Z,1245.8
2019-05-09T10:08:23.354Z,1245.8
2019-05-09T10:11:29.813Z,1245.8
2019-05-09T10:14:36.107Z,1245.8
2019-05-09T10:17:42.422Z,1245.8
2019-05-09T10:20:49.718Z,1245.8
2019-05-09T10:23:58.183Z,1245.8
2019-05-09T10:27:04.484Z,1245.8
2019-05-09T10:30:13.625Z,1245.8
2019-05-09T10:33:22.463Z,1245.8
2019-05-09T10:36:29.240Z,1245.8
2019-05-09T10:39:37.843Z,1245.8
2019-05-09T10:42:44.339Z,1245.8
2019-05-09T10:45:53.135Z,1245.8
2019-05-09T10:49:00.058Z,1245.8
2019-05-09T10:52:09.329Z,1245.8
2019-05-09T10:55:22.105Z,1245.8
2019-05-09T10:58:29.156Z,1245.8
2019-05-09T11:01:37.737Z,1245.8
2019-05-09T11:04:49.723Z,1245.8
2019-05-09T11:07:55.797Z,1245.8
2019-05-09T11:11:10.091Z,1245.8
2019-05-09T11:14:37.912Z,1245.8
2019-05-09T11:17:44.173Z,1245.8
2019-05-09T11:20:52.462Z,1245.8
2019-05-09T11:23:59.678Z,1245.8
2019-05-09T11:27:08.400Z,1245.8
2019-05-09T11:30:14.670Z,1245.8
2019-05-09T11:33:23.167Z,1245.8
2019-05-09T11:36:29.459Z,1245.8
2019-05-09T11:41:02.702Z,1245.8
2019-05-09T11:44:09.812Z,1245.8
2019-05-09T11:47:46.347Z,1245.8
2019-05-09T11:50:52.695Z,1245.8
2019-05-09T11:53:59.384Z,1245.8
2019-05-09T11:57:07.493Z,1245.8
2019-05-09T12:00:13.869Z,1245.8
2019-05-09T12:03:20.093Z,1245.8
2019-05-09T12:06:29.467Z,1245.8
2019-05-09T12:09:38.283Z,1245.8
2019-05-09T12:12:49.116Z,1245.8
2019-05-09T12:15:58.196Z,1245.8
2019-05-09T12:19:04.620Z,1245.8
2019-05-09T12:22:10.926Z,1245.8
2019-05-09T12:25:19.450Z,1245.8
2019-05-09T12:28:25.611Z,1245.8
2019-05-09T12:31:34.439Z,1245.8
2019-05-09T12:34:43.573Z,1245.8
2019-05-09T12:37:52.311Z,1245.8
2019-05-09T12:41:01.752Z,1245.8
2019-05-09T12:44:10.072Z,1245.8
2019-05-09T12:47:18.865Z,1245.8
2019-05-09T12:50:25.226Z,1245.8
2019-05-09T12:53:34.289Z,1245.8
2019-05-09T12:56:40.421Z,1245.8
2019-05-09T12:59:53.737Z,1245.8
2019-05-09T13:03:02.467Z,1245.8
2019-05-09T13:06:09.401Z,1245.8
2019-05-09T13:09:18.379Z,1245.8
2019-05-09T13:12:24.925Z,1245.8
2019-05-09T13:15:34.131Z,1245.8
2019-05-09T13:18:42.808Z,1245.8
2019-05-09T13:21:48.955Z,1245.8
2019-05-09T13:24:55.214Z,1245.8
2019-05-09T13:28:09.550Z,1245.8
2019-05-09T13:31:18.739Z,1245.8
2019-05-09T13:34:24.949Z,1245.8
2019-05-09T13:37:33.828Z,1245.8
2019-05-09T13:40:43.127Z,1245.8
2019-05-09T13:44:10.654Z,1245.8
2019-05-09T13:47:22.213Z,1245.8
2019-05-09T13:50:29.465Z,1245.8
2019-05-09T13:53:35.598Z,1245.8
2019-05-09T13:56:44.359Z,1245.8
2019-05-09T14:00:05.178Z,1245.8
2019-05-09T14:03:14.251Z,1245.8
2019-05-09T14:06:23.160Z,1245.8
2019-05-09T14:09:30.723Z,1245.8
2019-05-09T14:12:39.453Z,1245.8
2019-05-09T14:15:45.725Z,1245.8
2019-05-09T14:19:24.298Z,1245.8
2019-05-09T14:22:58.100Z,1245.8
2019-05-09T14:26:04.300Z,1245.8
2019-05-09T14:29:19.965Z,1245.8
2019-05-09T14:32:34.846Z,1245.8
2019-05-09T14:35:44.983Z,1245.8
2019-05-09T14:38:53.653Z,1245.8
2019-05-09T14:42:02.391Z,1245.8
2019-05-09T14:45:09.777Z,1245.8
2019-05-09T14:48:15.925Z,1245.8
2019-05-09T14:51:24.608Z,1245.8
2019-05-09T14:54:33.491Z,1245.8
2019-05-09T14:57:44.779Z,1245.8
2019-05-09T15:00:53.501Z,1245.8
2019-05-09T15:04:00.078Z,1245.8
2019-05-09T15:07:08.700Z,1245.8
2019-05-09T15:10:14.965Z,1245.8
2019-05-09T15:13:23.660Z,1245.8
2019-05-09T15:16:29.955Z,1245.8
2019-05-09T15:19:37.870Z,1245.8
2019-05-09T15:23:04.913Z,1245.8
2019-05-09T15:26:13.742Z,1245.8
2019-05-09T15:29:23.015Z,1245.8
2019-05-09T15:32:29.551Z,1245.8
2019-05-09T15:35:39.785Z,1245.8
2019-05-09T15:42:39.969Z,1245.8
2019-05-09T15:45:46.095Z,1245.8
2019-05-09T15:48:52.291Z,1245.8
2019-05-09T15:51:59.683Z,1245.8
2019-05-09T15:55:05.839Z,1245.8
2019-05-09T15:58:15.085Z,1245.8
2019-05-09T16:01:24.323Z,1245.8
2019-05-09T16:04:33.351Z,1245.8
2019-05-09T16:07:39.525Z,1245.8
2019-05-09T16:10:45.713Z,1245.8
2019-05-09T16:13:52.056Z,1245.8
2019-05-09T16:16:58.339Z,1245.8
2019-05-09T16:20:04.507Z,1245.8
2019-05-09T16:23:13.312Z,1245.8
2019-05-09T16:26:19.577Z,1245.8
2019-05-09T16:29:27.607Z,1245.8
2019-05-09T16:32:38.867Z,1245.8
2019-05-09T16:35:45.135Z,1245.8
2019-05-09T16:38:59.695Z,1245.8
2019-05-09T16:42:09.345Z,1245.8
2019-05-09T16:45:17.929Z,1245.8
2019-05-09T16:48:24.540Z,1245.8
2019-05-09T16:51:33.255Z,1245.8
2019-05-09T16:54:40.092Z,1245.8
2019-05-09T16:57:46.321Z,1245.8
2019-05-09T17:00:52.597Z,1245.8
2019-05-09T17:03:58.919Z,1245.8
2019-05-09T17:07:05.019Z,1245.8
2019-05-09T17:10:13.520Z,1245.8
2019-05-09T17:13:22.158Z,1245.8
2019-05-09T17:16:29.757Z,1245.8
2019-05-09T17:19:38.420Z,1245.8
2019-05-09T17:22:44.551Z,1245.8
2019-05-09T17:25:53.061Z,1245.8
2019-05-09T17:28:59.332Z,1245.8
2019-05-09T17:32:08.304Z,1245.8
2019-05-09T17:35:14.442Z,1245.8
2019-05-09T17:38:22.965Z,1245.8
2019-05-09T17:41:29.640Z,1245.8
2019-05-09T17:44:35.994Z,1245.8
2019-05-09T17:47:42.609Z,1245.8
2019-05-09T17:50:49.037Z,1245.8
2019-05-09T17:53:55.335Z,1245.8
2019-05-09T17:57:07.936Z,1245.8
2019-05-09T18:00:14.149Z,1245.8
2019-05-09T18:03:30.079Z,1245.8
2019-05-09T18:06:39.006Z,1245.8
2019-05-09T18:09:45.272Z,1245.8
2019-05-09T18:12:53.995Z,1245.8
2019-05-09T18:16:00.268Z,1245.8
2019-05-09T18:19:09.296Z,1245.8
2019-05-09T18:22:15.459Z,1245.8
2019-05-09T18:25:24.026Z,1245.8
2019-05-09T18:28:30.654Z,1245.8
2019-05-09T18:31:38.561Z,1245.8
2019-05-09T18:34:44.693Z,1245.8
2019-05-09T18:37:53.066Z,1245.8
2019-05-09T18:40:59.411Z,1245.8
2019-05-09T18:44:08.087Z,1245.8
2019-05-09T18:47:14.401Z,1245.8
2019-05-09T18:50:22.871Z,1245.8
2019-05-09T18:53:29.218Z,1245.8
2019-05-09T18:56:35.588Z,1245.8
2019-05-09T18:59:41.694Z,1245.8
2019-05-09T19:02:47.997Z,1245.8
2019-05-09T19:05:54.124Z,1245.8
2019-05-09T19:09:00.455Z,1245.8
2019-05-09T19:12:06.559Z,1245.8
2019-05-09T19:15:12.860Z,1245.8
2019-05-09T19:18:18.986Z,1245.8
2019-05-09T19:21:25.394Z,1245.8
2019-05-09T19:24:31.523Z,1245.8
2019-05-09T19:27:37.822Z,1245.8
2019-05-09T19:30:44.100Z,1245.8
2019-05-09T19:33:50.235Z,1245.8
2019-05-09T19:36:56.521Z,1245.8
2019-05-09T19:40:02.791Z,1245.8
2019-05-09T19:43:08.920Z,1245.8
2019-05-09T19:46:15.123Z,1245.8
2019-05-09T19:49:21.271Z,1245.8
2019-05-09T19:52:39.581Z,1245.8
2019-05-09T19:55:48.511Z,1245.8
2019-05-09T19:58:54.776Z,1245.8
2019-05-09T20:02:00.979Z,1245.8
2019-05-09T20:05:07.406Z,1245.8
2019-05-09T20:08:13.514Z,1245.8
2019-05-09T20:11:19.802Z,1245.8
2019-05-09T20:14:26.080Z,1245.8
2019-05-09T20:17:32.446Z,1245.8
2019-05-09T20:20:38.746Z,1245.8
2019-05-09T20:23:45.186Z,1245.8
2019-05-09T20:26:51.596Z,1245.8
2019-05-09T20:29:57.811Z,1245.8
2019-05-09T20:33:04.078Z,1245.8
2019-05-09T20:36:10.346Z,1245.8
2019-05-09T20:39:16.558Z,1245.8
2019-05-09T20:42:22.780Z,1245.8
2019-05-09T20:45:28.936Z,1245.8
2019-05-09T20:48:35.104Z,1245.8
2019-05-09T20:51:41.373Z,1245.8
2019-05-09T20:54:47.507Z,1245.8
2019-05-09T20:57:53.907Z,1245.8
2019-05-09T21:01:00.050Z,1245.8
2019-05-09T21:04:06.388Z,1245.8
2019-05-09T21:07:12.521Z,1245.8
2019-05-09T21:10:18.754Z,1245.8
2019-05-09T21:13:25.041Z,1245.8
2019-05-09T21:16:31.190Z,1245.8
2019-05-09T21:19:37.504Z,1245.8
2019-05-09T21:22:43.790Z,1245.8
2019-05-09T21:25:49.947Z,1245.8
2019-05-09T21:28:56.085Z,1245.8
2019-05-09T21:32:02.210Z,1245.8
2019-05-09T21:35:08.396Z,1245.8
2019-05-09T21:38:14.563Z,1245.8
2019-05-09T21:41:20.837Z,1245.8
2019-05-09T21:44:26.964Z,1245.8
2019-05-09T21:47:33.371Z,1245.8
2019-05-09T21:50:39.613Z,1245.8
2019-05-09T21:53:45.797Z,1245.8
2019-05-09T21:56:52.067Z,1245.8
2019-05-09T21:59:58.200Z,1245.8
2019-05-09T22:03:04.441Z,1245.8
2019-05-09T22:06:11.076Z,1245.8
2019-05-09T22:09:18.334Z,1245.8
2019-05-09T22:12:27.600Z,1245.8
2019-05-09T22:15:35.136Z,1245.8
2019-05-09T22:18:41.364Z,1245.8
2019-05-09T22:21:47.626Z,1245.8
2019-05-09T22:24:53.961Z,1245.8
2019-05-09T22:28:00.162Z,1245.8
2019-05-09T22:31:06.293Z,1245.8
2019-05-09T22:34:12.593Z,1245.8
2019-05-09T22:37:18.723Z,1245.8
2019-05-09T22:40:24.921Z,1245.8
2019-05-09T22:43:31.189Z,1245.8
2019-05-09T22:46:37.360Z,1245.8
2019-05-09T22:49:43.531Z,1245.8
2019-05-09T22:52:49.810Z,1245.8
2019-05-09T22:55:55.950Z,1245.8
2019-05-09T22:59:02.218Z,1245.8
2019-05-09T23:02:08.485Z,1245.8
2019-05-09T23:05:14.806Z,1245.8
2019-05-09T23:08:21.026Z,1245.8
2019-05-09T23:11:27.303Z,1245.8
2019-05-09T23:14:33.544Z,1245.8
2019-05-09T23:17:39.821Z,1245.8
2019-05-09T23:20:46.090Z,1245.8
2019-05-09T23:23:52.372Z,1245.8
2019-05-09T23:26:58.726Z,1245.8
2019-05-09T23:30:04.939Z,1245.8
2019-05-09T23:33:11.160Z,1245.8
2019-05-09T23:36:17.289Z,1245.8
2019-05-09T23:39:23.489Z,1245.8
2019-05-09T23:42:29.710Z,1245.8
2019-05-09T23:45:35.867Z,1245.8
2019-05-09T23:48:42.191Z,1245.8
2019-05-09T23:51:48.455Z,1245.8
2019-05-09T23:54:54.724Z,1245.8
2019-05-09T23:58:00.888Z,1245.8
